createdAt,value
2022-10-05T00:01:30.805Z,83.88
2022-10-05T00:04:21.685Z,84.39
2022-10-05T00:07:08.832Z,84.54
2022-10-05T00:09:35.795Z,83.31
2022-10-05T00:12:32.133Z,84.29
2022-10-05T00:15:01.303Z,83.52
2022-10-05T00:17:30.369Z,82.92
2022-10-05T00:19:57.831Z,83.87
2022-10-05T00:22:31.692Z,83.24
2022-10-05T00:25:01.201Z,82.73
2022-10-05T00:27:34.199Z,83.58
2022-10-05T00:30:11.913Z,83.32
2022-10-05T00:32:39.041Z,83.21
2022-10-05T00:35:06.524Z,82.67
2022-10-05T00:37:33.911Z,82.56
2022-10-05T00:40:01.116Z,82.43
2022-10-05T00:43:12.807Z,82.55
2022-10-05T00:45:50.692Z,82.61
2022-10-05T00:48:52.829Z,83.73
2022-10-05T00:51:27.268Z,83.00
2022-10-05T00:54:18.069Z,83.18
2022-10-05T00:56:51.220Z,82.92
2022-10-05T00:59:40.167Z,84.00
2022-10-05T01:02:22.160Z,83.26
2022-10-05T01:04:59.763Z,82.98
2022-10-05T01:07:44.111Z,82.87
2022-10-05T01:10:42.004Z,83.64
2022-10-05T01:13:25.371Z,83.23
2022-10-05T01:16:04.432Z,83.19
2022-10-05T01:18:44.316Z,83.40
2022-10-05T01:21:20.321Z,83.72
2022-10-05T01:24:05.443Z,84.35
2022-10-05T01:26:44.419Z,83.83
2022-10-05T01:29:22.935Z,83.54
2022-10-05T01:32:00.163Z,84.37
2022-10-05T01:34:52.431Z,84.00
2022-10-05T01:37:19.336Z,84.73
2022-10-05T01:40:11.042Z,84.96
2022-10-05T01:42:42.506Z,85.02
2022-10-05T01:45:25.279Z,84.57
2022-10-05T01:48:05.601Z,84.94
2022-10-05T01:50:56.469Z,85.10
2022-10-05T01:53:54.556Z,85.23
2022-10-05T01:56:37.915Z,84.72
2022-10-05T01:59:28.350Z,84.40
2022-10-05T02:02:02.463Z,85.60
2022-10-05T02:05:01.050Z,84.75
2022-10-05T02:07:32.731Z,85.79
2022-10-05T02:10:06.168Z,84.73
2022-10-05T02:12:38.070Z,85.22
2022-10-05T02:15:17.173Z,85.65
2022-10-05T02:17:50.340Z,84.92
2022-10-05T02:20:26.036Z,86.13
2022-10-05T02:23:09.440Z,85.17
2022-10-05T02:25:42.506Z,86.05
2022-10-05T02:28:18.535Z,85.92
2022-10-05T02:30:52.729Z,86.07
2022-10-05T02:33:31.887Z,85.50
2022-10-05T02:36:21.729Z,85.68
2022-10-05T02:38:54.224Z,85.52
2022-10-05T02:41:29.692Z,86.56
2022-10-05T02:44:18.076Z,85.73
2022-10-05T02:47:07.069Z,86.31
2022-10-05T02:49:47.249Z,86.96
2022-10-05T02:52:23.410Z,86.17
2022-10-05T02:55:06.099Z,86.42
2022-10-05T02:57:42.038Z,86.79
2022-10-05T03:00:15.547Z,87.04
2022-10-05T03:02:56.728Z,86.28
2022-10-05T03:05:41.891Z,86.76
2022-10-05T03:08:27.712Z,86.25
2022-10-05T03:11:15.103Z,86.33
2022-10-05T03:13:55.979Z,87.26
2022-10-05T03:16:38.543Z,86.85
2022-10-05T03:19:10.465Z,86.70
2022-10-05T03:21:58.129Z,87.03
2022-10-05T03:24:28.935Z,86.92
2022-10-05T03:27:19.576Z,87.50
2022-10-05T03:30:07.948Z,87.20
2022-10-05T03:32:36.828Z,87.56
2022-10-05T03:35:15.829Z,87.71
2022-10-05T03:38:04.443Z,87.83
2022-10-05T03:40:52.693Z,87.53
2022-10-05T03:43:29.755Z,87.42
2022-10-05T03:46:30.486Z,88.19
2022-10-05T03:49:07.195Z,87.37
2022-10-05T03:52:29.652Z,87.25
2022-10-05T03:55:02.813Z,88.47
2022-10-05T03:57:36.416Z,87.50
2022-10-05T04:00:20.541Z,87.68
2022-10-05T04:03:03.033Z,88.55
2022-10-05T04:05:38.264Z,88.35
2022-10-05T04:08:12.009Z,87.77
2022-10-05T04:11:00.875Z,87.89
2022-10-05T04:14:11.191Z,88.99
2022-10-05T04:16:44.872Z,88.34
2022-10-05T04:19:24.396Z,88.10
2022-10-05T04:22:17.584Z,88.13
2022-10-05T04:24:56.369Z,89.71
2022-10-05T04:27:32.161Z,88.84
2022-10-05T04:30:02.453Z,88.77
2022-10-05T04:32:41.771Z,89.00
2022-10-05T04:35:32.112Z,89.34
2022-10-05T04:38:17.944Z,89.56
2022-10-05T04:41:01.605Z,89.29
2022-10-05T04:43:39.016Z,89.46
2022-10-05T04:46:11.942Z,88.40
2022-10-05T04:48:41.846Z,89.73
2022-10-05T04:51:21.256Z,89.44
2022-10-05T04:54:39.439Z,89.39
2022-10-05T04:57:20.063Z,89.59
2022-10-05T05:00:05.747Z,88.71
2022-10-05T05:02:41.011Z,89.24
2022-10-05T05:05:17.121Z,88.56
2022-10-05T05:07:54.163Z,89.18
2022-10-05T05:10:35.399Z,89.88
2022-10-05T05:13:24.690Z,88.60
2022-10-05T05:16:06.823Z,88.70
2022-10-05T05:18:33.942Z,89.88
2022-10-05T05:21:19.931Z,89.88
2022-10-05T05:24:07.980Z,89.08
2022-10-05T05:27:05.776Z,89.01
2022-10-05T05:30:07.533Z,89.49
2022-10-05T05:32:58.840Z,90.17
2022-10-05T05:36:13.980Z,90.15
2022-10-05T05:38:54.221Z,89.00
2022-10-05T05:41:33.867Z,89.09
2022-10-05T05:44:25.004Z,89.32
2022-10-05T05:47:31.452Z,89.76
2022-10-05T05:50:19.968Z,90.46
2022-10-05T05:52:55.695Z,89.20
2022-10-05T05:55:30.499Z,89.60
2022-10-05T05:58:06.312Z,90.16
2022-10-05T06:01:03.548Z,90.47
2022-10-05T06:03:40.015Z,89.59
2022-10-05T06:06:15.851Z,89.78
2022-10-05T06:09:07.410Z,89.99
2022-10-05T06:12:10.313Z,90.53
2022-10-05T06:15:10.812Z,89.78
2022-10-05T06:18:07.135Z,90.46
2022-10-05T06:20:59.984Z,90.50
2022-10-05T06:23:39.848Z,91.91
2022-10-05T06:26:44.986Z,90.94
2022-10-05T06:29:20.163Z,91.16
2022-10-05T06:31:59.085Z,91.00
2022-10-05T06:34:46.027Z,91.08
2022-10-05T06:37:37.076Z,90.66
2022-10-05T06:40:16.325Z,91.37
2022-10-05T06:42:55.953Z,91.76
2022-10-05T06:45:56.247Z,90.84
2022-10-05T06:48:52.576Z,90.63
2022-10-05T06:52:25.472Z,90.72
2022-10-05T06:55:14.341Z,91.64
2022-10-05T06:58:04.273Z,90.79
2022-10-05T07:00:46.447Z,91.63
2022-10-05T07:03:30.097Z,91.61
2022-10-05T07:06:05.965Z,91.84
2022-10-05T07:08:59.892Z,91.62
2022-10-05T07:11:31.393Z,91.86
2022-10-05T07:14:21.924Z,92.03
2022-10-05T07:17:21.393Z,92.11
2022-10-05T07:20:08.343Z,91.50
2022-10-05T07:23:24.479Z,91.90
2022-10-05T07:26:29.724Z,92.27
2022-10-05T07:29:38.543Z,92.39
2022-10-05T07:32:31.500Z,92.28
2022-10-05T07:35:27.488Z,92.61
2022-10-05T07:38:14.626Z,92.88
2022-10-05T07:41:33.958Z,92.69
2022-10-05T07:44:20.744Z,92.70
2022-10-05T07:47:20.809Z,91.96
2022-10-05T07:50:33.704Z,92.57
2022-10-05T07:53:38.639Z,92.73
2022-10-05T07:56:40.368Z,92.31
2022-10-05T07:59:35.253Z,92.13
2022-10-05T08:02:25.517Z,92.19
2022-10-05T08:05:19.485Z,92.18
2022-10-05T08:08:11.605Z,92.84
2022-10-05T08:11:09.123Z,92.05
2022-10-05T08:14:08.624Z,92.88
2022-10-05T08:16:58.547Z,93.45
2022-10-05T08:20:10.333Z,93.29
2022-10-05T08:23:06.225Z,92.33
2022-10-05T08:26:02.683Z,92.88
2022-10-05T08:29:00.056Z,92.54
2022-10-05T08:31:58.077Z,93.16
2022-10-05T08:35:05.899Z,93.05
2022-10-05T08:38:01.499Z,92.49
2022-10-05T08:41:00.508Z,93.61
2022-10-05T08:44:08.812Z,93.05
2022-10-05T08:47:22.683Z,93.69
2022-10-05T08:50:30.957Z,93.08
2022-10-05T08:53:55.508Z,93.30
2022-10-05T08:57:05.506Z,93.36
2022-10-05T09:00:30.039Z,92.92
2022-10-05T09:03:38.581Z,93.03
2022-10-05T09:07:07.025Z,92.91
2022-10-05T09:09:57.155Z,93.62
2022-10-05T09:12:46.436Z,92.82
2022-10-05T09:15:45.439Z,93.23
2022-10-05T09:18:58.591Z,93.57
2022-10-05T09:22:22.442Z,93.16
2022-10-05T09:25:16.895Z,93.27
2022-10-05T09:28:17.255Z,93.25
2022-10-05T09:31:35.617Z,93.93
2022-10-05T09:34:34.801Z,93.35
2022-10-05T09:37:34.212Z,94.03
2022-10-05T09:40:30.001Z,93.68
2022-10-05T09:44:14.161Z,93.57
2022-10-05T09:47:35.772Z,93.84
2022-10-05T09:50:42.884Z,93.85
2022-10-05T09:53:53.930Z,93.12
2022-10-05T09:57:07.571Z,93.68
2022-10-05T10:00:28.044Z,93.63
2022-10-05T10:03:46.233Z,93.76
2022-10-05T10:07:03.949Z,93.83
2022-10-05T10:10:21.591Z,93.85
2022-10-05T10:13:29.940Z,93.56
2022-10-05T10:16:51.396Z,93.57
2022-10-05T10:20:07.676Z,93.67
2022-10-05T10:23:12.788Z,93.81
2022-10-05T10:26:58.297Z,94.16
2022-10-05T10:30:00.565Z,94.17
2022-10-05T10:33:15.244Z,94.29
2022-10-05T10:36:15.325Z,94.19
2022-10-05T10:39:22.218Z,93.57
2022-10-05T10:42:25.995Z,93.59
2022-10-05T10:45:28.110Z,93.17
2022-10-05T10:48:23.288Z,93.07
2022-10-05T10:51:29.288Z,92.77
2022-10-05T10:54:40.584Z,92.56
2022-10-05T10:57:35.820Z,92.50
2022-10-05T11:00:44.012Z,91.95
2022-10-05T11:03:51.065Z,92.21
2022-10-05T11:06:59.214Z,92.15
2022-10-05T11:10:03.854Z,91.29
2022-10-05T11:13:29.180Z,90.05
2022-10-05T11:16:18.815Z,89.67
2022-10-05T11:19:40.803Z,89.02
2022-10-05T11:22:54.767Z,88.76
2022-10-05T11:25:46.404Z,88.51
2022-10-05T11:29:07.146Z,88.42
2022-10-05T11:32:15.380Z,87.69
2022-10-05T11:34:48.280Z,87.78
2022-10-05T11:38:08.893Z,87.21
2022-10-05T11:41:24.623Z,87.56
2022-10-05T11:44:32.756Z,87.13
2022-10-05T11:47:28.972Z,87.25
2022-10-05T11:50:51.288Z,87.23
2022-10-05T11:53:53.556Z,86.39
2022-10-05T11:56:53.917Z,85.69
2022-10-05T12:00:00.723Z,84.35
2022-10-05T12:03:06.594Z,83.42
2022-10-05T12:06:38.472Z,82.95
2022-10-05T12:09:39.490Z,81.59
2022-10-05T12:12:48.472Z,81.71
2022-10-05T12:15:51.213Z,80.91
2022-10-05T12:19:01.468Z,80.17
2022-10-05T12:21:53.872Z,79.57
2022-10-05T12:24:55.452Z,78.92
2022-10-05T12:27:46.931Z,79.00
2022-10-05T12:30:38.568Z,78.58
2022-10-05T12:33:37.077Z,77.58
2022-10-05T12:37:04.366Z,77.23
2022-10-05T12:40:07.140Z,76.92
2022-10-05T12:43:11.980Z,77.06
2022-10-05T12:46:05.267Z,76.38
2022-10-05T12:49:37.803Z,76.16
2022-10-05T12:52:26.836Z,75.44
2022-10-05T12:55:30.651Z,76.76
2022-10-05T12:58:23.412Z,75.37
2022-10-05T13:01:35.286Z,76.03
2022-10-05T13:04:44.361Z,75.89
2022-10-05T13:07:46.379Z,74.71
2022-10-05T13:11:14.847Z,75.36
2022-10-05T13:14:02.132Z,75.13
2022-10-05T13:17:02.425Z,75.42
2022-10-05T13:19:59.794Z,74.35
2022-10-05T13:23:02.463Z,74.70
2022-10-05T13:25:52.376Z,74.67
2022-10-05T13:28:50.933Z,74.71
2022-10-05T13:31:55.610Z,74.34
2022-10-05T13:34:54.921Z,74.60
2022-10-05T13:37:50.432Z,75.22
2022-10-05T13:40:43.600Z,74.74
2022-10-05T13:43:45.467Z,74.83
2022-10-05T13:47:05.178Z,74.95
2022-10-05T13:50:04.521Z,75.33
2022-10-05T13:53:04.077Z,76.01
2022-10-05T13:56:14.070Z,75.28
2022-10-05T13:59:48.790Z,75.14
2022-10-05T14:02:40.130Z,74.79
2022-10-05T14:05:43.451Z,74.93
2022-10-05T14:08:39.507Z,75.01
2022-10-05T14:12:07.297Z,75.37
2022-10-05T14:15:06.089Z,75.69
2022-10-05T14:18:00.892Z,75.52
2022-10-05T14:20:52.457Z,75.22
2022-10-05T14:23:45.903Z,75.15
2022-10-05T14:26:50.685Z,75.73
2022-10-05T14:29:43.183Z,75.39
2022-10-05T14:32:35.764Z,76.00
2022-10-05T14:35:31.645Z,76.31
2022-10-05T14:38:21.017Z,76.30
2022-10-05T14:41:28.156Z,75.94
2022-10-05T14:44:46.563Z,76.80
2022-10-05T14:47:52.208Z,76.32
2022-10-05T14:50:41.800Z,77.01
2022-10-05T14:53:31.833Z,76.70
2022-10-05T14:56:18.676Z,76.85
2022-10-05T14:59:24.421Z,77.22
2022-10-05T15:02:31.621Z,77.08
2022-10-05T15:05:38.701Z,77.66
2022-10-05T15:08:34.249Z,77.79
2022-10-05T15:11:21.204Z,77.75
2022-10-05T15:14:08.332Z,77.72
2022-10-05T15:16:47.044Z,77.89
2022-10-05T15:20:08.917Z,78.26
2022-10-05T15:23:17.545Z,78.61
2022-10-05T15:26:21.451Z,78.21
2022-10-05T15:29:10.921Z,78.65
2022-10-05T15:32:14.458Z,78.62
2022-10-05T15:35:26.782Z,78.84
2022-10-05T15:38:25.972Z,78.73
2022-10-05T15:41:26.816Z,79.05
2022-10-05T15:44:29.562Z,78.75
2022-10-05T15:47:23.244Z,79.10
2022-10-05T15:50:21.080Z,79.30
2022-10-05T15:52:55.449Z,79.53
2022-10-05T15:55:46.820Z,79.74
2022-10-05T15:58:48.963Z,79.94
2022-10-05T16:01:52.637Z,79.70
2022-10-05T16:04:42.518Z,79.67
2022-10-05T16:07:49.278Z,80.04
2022-10-05T16:10:40.585Z,80.23
2022-10-05T16:13:27.502Z,80.25
2022-10-05T16:16:29.722Z,80.54
2022-10-05T16:19:25.784Z,80.33
2022-10-05T16:22:26.516Z,80.23
2022-10-05T16:25:40.824Z,80.48
2022-10-05T16:28:30.829Z,80.52
2022-10-05T16:31:26.915Z,80.61
2022-10-05T16:35:07.896Z,80.81
2022-10-05T16:38:16.156Z,80.77
2022-10-05T16:41:03.775Z,81.53
2022-10-05T16:43:33.566Z,80.95
2022-10-05T16:46:38.947Z,80.89
2022-10-05T16:49:34.923Z,81.43
2022-10-05T16:52:23.994Z,81.39
2022-10-05T16:55:19.325Z,81.20
2022-10-05T16:58:12.407Z,81.63
2022-10-05T17:01:11.928Z,81.42
2022-10-05T17:04:07.435Z,81.63
2022-10-05T17:07:13.289Z,81.69
2022-10-05T17:10:27.136Z,81.41
2022-10-05T17:13:35.248Z,81.42
2022-10-05T17:16:34.267Z,81.43
2022-10-05T17:19:30.245Z,82.00
2022-10-05T17:22:36.627Z,81.74
2022-10-05T17:25:39.113Z,81.58
2022-10-05T17:28:31.903Z,81.63
2022-10-05T17:31:40.393Z,81.30
2022-10-05T17:34:45.610Z,81.81
2022-10-05T17:37:47.712Z,81.76
2022-10-05T17:40:49.564Z,81.68
2022-10-05T17:43:36.412Z,81.96
2022-10-05T17:46:26.103Z,81.57
2022-10-05T17:49:16.107Z,81.68
2022-10-05T17:52:01.403Z,82.32
2022-10-05T17:55:10.895Z,82.54
2022-10-05T17:57:57.872Z,82.09
2022-10-05T18:01:21.644Z,82.79
2022-10-05T18:04:11.142Z,82.66
2022-10-05T18:06:58.968Z,82.25
2022-10-05T18:09:46.080Z,82.08
2022-10-05T18:12:36.066Z,81.86
2022-10-05T18:15:35.711Z,82.22
2022-10-05T18:18:56.050Z,82.55
2022-10-05T18:21:46.236Z,82.61
2022-10-05T18:24:33.151Z,82.51
2022-10-05T18:27:38.084Z,82.65
2022-10-05T18:30:38.021Z,82.89
2022-10-05T18:33:40.677Z,82.84
2022-10-05T18:36:52.246Z,82.94
2022-10-05T18:39:51.001Z,82.59
2022-10-05T18:43:05.046Z,83.54
2022-10-05T18:45:57.789Z,83.24
2022-10-05T18:49:17.745Z,83.00
2022-10-05T18:52:26.435Z,84.00
2022-10-05T18:55:12.456Z,82.96
2022-10-05T18:58:22.181Z,83.31
2022-10-05T19:01:20.256Z,83.76
2022-10-05T19:04:39.392Z,83.16
2022-10-05T19:07:38.980Z,83.86
2022-10-05T19:10:42.748Z,83.87
2022-10-05T19:13:57.731Z,84.52
2022-10-05T19:17:05.968Z,84.54
2022-10-05T19:20:40.992Z,84.13
2022-10-05T19:23:52.724Z,84.09
2022-10-05T19:27:16.467Z,84.58
2022-10-05T19:30:37.524Z,84.55
2022-10-05T19:33:45.169Z,84.87
2022-10-05T19:36:37.916Z,84.16
2022-10-05T19:39:32.191Z,84.22
2022-10-05T19:42:50.109Z,84.91
2022-10-05T19:45:46.464Z,83.88
2022-10-05T19:48:50.740Z,84.42
2022-10-05T19:51:55.713Z,84.64
2022-10-05T19:54:47.355Z,84.70
2022-10-05T19:57:37.272Z,84.62
2022-10-05T20:00:24.504Z,85.04
2022-10-05T20:03:28.080Z,84.97
2022-10-05T20:06:24.552Z,84.78
2022-10-05T20:09:16.351Z,85.40
2022-10-05T20:12:13.448Z,85.59
2022-10-05T20:15:00.443Z,85.89
2022-10-05T20:17:47.248Z,85.91
2022-10-05T20:20:54.081Z,85.48
2022-10-05T20:23:43.021Z,85.67
2022-10-05T20:27:04.822Z,85.97
2022-10-05T20:29:54.501Z,85.57
2022-10-05T20:32:41.437Z,85.58
2022-10-05T20:35:28.668Z,85.33
2022-10-05T20:38:15.477Z,85.83
2022-10-05T20:41:02.324Z,86.25
2022-10-05T20:43:49.192Z,86.05
2022-10-05T20:46:36.326Z,85.41
2022-10-05T20:49:24.204Z,85.40
2022-10-05T20:52:11.233Z,86.07
2022-10-05T20:54:59.282Z,85.41
2022-10-05T20:57:46.150Z,85.74
2022-10-05T21:00:34.126Z,85.68
2022-10-05T21:03:21.212Z,86.61
2022-10-05T21:05:48.177Z,86.46
2022-10-05T21:08:35.047Z,86.96
2022-10-05T21:11:21.988Z,87.17
2022-10-05T21:14:08.857Z,86.47
2022-10-05T21:16:58.998Z,87.50
2022-10-05T21:19:45.880Z,86.95
2022-10-05T21:22:33.036Z,87.12
2022-10-05T21:25:19.899Z,87.15
2022-10-05T21:28:06.919Z,87.93
2022-10-05T21:30:53.875Z,87.50
2022-10-05T21:33:41.607Z,88.09
2022-10-05T21:36:28.564Z,88.15
2022-10-05T21:39:16.537Z,88.59
2022-10-05T21:42:03.839Z,88.89
2022-10-05T21:44:50.976Z,88.99
2022-10-05T21:47:37.985Z,88.70
2022-10-05T21:50:25.356Z,89.03
2022-10-05T21:53:12.559Z,89.52
2022-10-05T21:56:03.460Z,89.11
2022-10-05T21:58:50.716Z,89.69
2022-10-05T22:01:37.794Z,89.44
2022-10-05T22:04:25.534Z,89.20
2022-10-05T22:07:13.533Z,89.10
2022-10-05T22:10:00.368Z,89.24
2022-10-05T22:12:47.995Z,89.37
2022-10-05T22:15:34.904Z,89.51
2022-10-05T22:18:21.880Z,90.08
2022-10-05T22:21:08.724Z,89.38
2022-10-05T22:23:55.721Z,89.68
2022-10-05T22:26:43.652Z,90.57
2022-10-05T22:29:30.738Z,90.64
2022-10-05T22:32:17.532Z,90.21
2022-10-05T22:35:09.119Z,90.69
2022-10-05T22:37:58.081Z,90.09
2022-10-05T22:40:45.135Z,90.88
2022-10-05T22:43:32.717Z,91.03
2022-10-05T22:46:19.837Z,91.26
2022-10-05T22:49:06.874Z,91.15
2022-10-05T22:51:54.232Z,91.29
2022-10-05T22:54:41.410Z,91.64
2022-10-05T22:57:28.444Z,91.64
2022-10-05T23:00:15.261Z,91.56
2022-10-05T23:03:03.901Z,91.68
2022-10-05T23:05:50.823Z,92.04
2022-10-05T23:08:37.800Z,91.75
2022-10-05T23:11:34.254Z,92.21
2022-10-05T23:14:21.311Z,92.23
2022-10-05T23:17:08.155Z,92.14
2022-10-05T23:19:55.306Z,92.66
2022-10-05T23:22:42.206Z,92.21
2022-10-05T23:25:29.385Z,92.31
2022-10-05T23:28:16.283Z,92.64
2022-10-05T23:31:03.621Z,92.09
2022-10-05T23:33:50.788Z,93.14
2022-10-05T23:36:40.331Z,92.61
2022-10-05T23:39:27.117Z,92.95
2022-10-05T23:42:14.240Z,93.09
2022-10-05T23:45:01.232Z,93.14
2022-10-05T23:47:48.464Z,93.36
2022-10-05T23:50:35.535Z,93.26
2022-10-05T23:53:22.651Z,93.46
2022-10-05T23:56:10.621Z,93.79
2022-10-05T23:58:57.604Z,94.07
